Fykan — LLDJ — position and weather

sailwx.info

Track history (hours):
 
Tides and Currents Weather Stations Pressure Air Temp Water Temp Dewpoint Dewpoint Depression Visibility Wind Speed Wind Dir Waves Ship Positions

Fykan

Last reported at 2015-Aug-30 21:15 UTC. Time now 2015-Aug-31 04:46 UTC.
Position N 66°35' E 012°44'.

Length 52 m; draft 3.3 m.

Type: Ship. MMSI: 259681000.

Date/timePositionNaut miles runAvg speedWind from/ knotsBaromVisibWave heightAir tempDewpointWater temp
2015-Aug-30 21:15N 66°35' E 012°44'6 6.9
2015-Aug-30 20:25N 66°35' E 012°59'5 2.6
2015-Aug-30 18:31N 66°35' E 013°11'1 1.0
2015-Aug-30 17:16N 66°34' E 013°11'5 2.7
2015-Aug-30 15:16N 66°36' E 012°59'4 6.0
2015-Aug-30 14:33N 66°34' E 012°50'0 0.0
2015-Aug-29 10:14N 66°34' E 012°50'4 5.8
2015-Aug-29 09:33N 66°36' E 012°59'0 0.2
2015-Aug-29 06:24N 66°36' E 012°59'4 5.0
2015-Aug-29 05:33N 66°34' E 012°50'3 0.3
2015-Aug-28 20:32N 66°36' E 012°48'4 1.3
2015-Aug-28 17:07N 66°36' E 012°59'3 5.7
2015-Aug-28 16:31N 66°34' E 012°52'1 0.1
2015-Aug-28 10:33N 66°34' E 012°50'4 0.8
2015-Aug-28 05:13N 66°36' E 012°59'5 6.4
2015-Aug-28 04:29N 66°34' E 012°49'3 0.3
2015-Aug-27 18:06N 66°36' E 012°42'7 1.8
2015-Aug-27 14:23N 66°36' E 012°59'5 6.1
2015-Aug-27 13:33N 66°34' E 012°47'5 0.7
2015-Aug-27 06:23N 66°36' E 012°59'5 5.4
2015-Aug-27 05:30N 66°34' E 012°49'0 0.0
2015-Aug-26 20:28N 66°34' E 012°49'5 0.8
2015-Aug-26 14:25N 66°36' E 012°59'5 5.9
2015-Aug-26 13:33N 66°34' E 012°47'1 0.4
2015-Aug-26 10:09N 66°34' E 012°50'4 1.1
2015-Aug-26 06:22N 66°36' E 012°59'4 5.1
2015-Aug-26 05:33N 66°34' E 012°50'3 0.3
2015-Aug-25 20:29N 66°36' E 012°49'3 0.8
2015-Aug-25 16:33N 66°34' E 012°54'2 0.4
2015-Aug-25 10:28N 66°34' E 012°49'4 0.8
2015-Aug-25 05:08N 66°35' E 012°59'4 6.5
2015-Aug-25 04:28N 66°34' E 012°49'5 0.4
2015-Aug-24 14:29N 66°37' E 012°59'6 6.0
2015-Aug-24 13:33N 66°34' E 012°47'3 1.3
2015-Aug-24 11:22N 66°36' E 012°41'7 1.5
2015-Aug-24 06:28N 66°37' E 012°59'5 5.4
2015-Aug-24 05:27N 66°34' E 012°48'5 0.3
2015-Aug-23 15:18N 66°36' E 012°59'5 5.7
2015-Aug-23 14:25N 66°34' E 012°48'4 0.1
2015-Aug-22 11:19N 66°36' E 012°40'3 3.7
2015-Aug-22 10:32N 66°34' E 012°46'5 5.2
2015-Aug-22 09:32N 66°36' E 012°59'0 0.1
2015-Aug-22 06:22N 66°36' E 012°59'5 5.4
2015-Aug-22 05:28N 66°34' E 012°48'1 0.1
2015-Aug-21 20:29N 66°34' E 012°50'4 1.3
2015-Aug-21 17:04N 66°36' E 012°59'3 5.8
2015-Aug-21 16:33N 66°34' E 012°54'0 0.0
2015-Aug-21 10:28N 66°34' E 012°54'8 3.6
2015-Aug-21 08:11N 66°37' E 013°13'6 2.0
2015-Aug-21 05:21N 66°36' E 012°59'4 5.5
2015-Aug-21 04:33N 66°34' E 012°50'  
Track history (hours):
 
Tides and Currents Weather Stations Pressure Air Temp Water Temp Dewpoint Dewpoint Depression Visibility Wind Speed Wind Dir Waves Ship Positions

Fykan

Last reported at 2015-Aug-30 21:15 UTC. Time now 2015-Aug-31 04:46 UTC.
Position N 66°35' E 012°44'.

Length 52 m; draft 3.3 m.

Type: Ship. MMSI: 259681000.

Date/timePositionNaut miles runAvg speedWind from/ knotsBaromVisibWave heightAir tempDewpointWater temp
2015-Aug-30 21:15N 66°35' E 012°44'6 6.9
2015-Aug-30 20:25N 66°35' E 012°59'5 2.6
2015-Aug-30 18:31N 66°35' E 013°11'1 1.0
2015-Aug-30 17:16N 66°34' E 013°11'5 2.7
2015-Aug-30 15:16N 66°36' E 012°59'4 6.0
2015-Aug-30 14:33N 66°34' E 012°50'0 0.0
2015-Aug-29 10:14N 66°34' E 012°50'4 5.8
2015-Aug-29 09:33N 66°36' E 012°59'0 0.2
2015-Aug-29 06:24N 66°36' E 012°59'4 5.0
2015-Aug-29 05:33N 66°34' E 012°50'3 0.3
2015-Aug-28 20:32N 66°36' E 012°48'4 1.3
2015-Aug-28 17:07N 66°36' E 012°59'3 5.7
2015-Aug-28 16:31N 66°34' E 012°52'1 0.1
2015-Aug-28 10:33N 66°34' E 012°50'4 0.8
2015-Aug-28 05:13N 66°36' E 012°59'5 6.4
2015-Aug-28 04:29N 66°34' E 012°49'3 0.3
2015-Aug-27 18:06N 66°36' E 012°42'7 1.8
2015-Aug-27 14:23N 66°36' E 012°59'5 6.1
2015-Aug-27 13:33N 66°34' E 012°47'5 0.7
2015-Aug-27 06:23N 66°36' E 012°59'5 5.4
2015-Aug-27 05:30N 66°34' E 012°49'0 0.0
2015-Aug-26 20:28N 66°34' E 012°49'5 0.8
2015-Aug-26 14:25N 66°36' E 012°59'5 5.9
2015-Aug-26 13:33N 66°34' E 012°47'1 0.4
2015-Aug-26 10:09N 66°34' E 012°50'4 1.1
2015-Aug-26 06:22N 66°36' E 012°59'4 5.1
2015-Aug-26 05:33N 66°34' E 012°50'3 0.3
2015-Aug-25 20:29N 66°36' E 012°49'3 0.8
2015-Aug-25 16:33N 66°34' E 012°54'2 0.4
2015-Aug-25 10:28N 66°34' E 012°49'4 0.8
2015-Aug-25 05:08N 66°35' E 012°59'4 6.5
2015-Aug-25 04:28N 66°34' E 012°49'5 0.4
2015-Aug-24 14:29N 66°37' E 012°59'6 6.0
2015-Aug-24 13:33N 66°34' E 012°47'3 1.3
2015-Aug-24 11:22N 66°36' E 012°41'7 1.5
2015-Aug-24 06:28N 66°37' E 012°59'5 5.4
2015-Aug-24 05:27N 66°34' E 012°48'5 0.3
2015-Aug-23 15:18N 66°36' E 012°59'5 5.7
2015-Aug-23 14:25N 66°34' E 012°48'4 0.1
2015-Aug-22 11:19N 66°36' E 012°40'3 3.7
2015-Aug-22 10:32N 66°34' E 012°46'5 5.2
2015-Aug-22 09:32N 66°36' E 012°59'0 0.1
2015-Aug-22 06:22N 66°36' E 012°59'5 5.4
2015-Aug-22 05:28N 66°34' E 012°48'1 0.1
2015-Aug-21 20:29N 66°34' E 012°50'4 1.3
2015-Aug-21 17:04N 66°36' E 012°59'3 5.8
2015-Aug-21 16:33N 66°34' E 012°54'0 0.0
2015-Aug-21 10:28N 66°34' E 012°54'8 3.6
2015-Aug-21 08:11N 66°37' E 013°13'6 2.0
2015-Aug-21 05:21N 66°36' E 012°59'4 5.5
2015-Aug-21 04:33N 66°34' E 012°50'  

Dump ship's entire track history